sensor_id;sensor_type;location;lat;lon;timestamp;P1;durP1;ratioP1;P2;durP2;ratioP2
8596;SDS011;4336;49.310;8.646;2023-06-22T00:00:41;10.90;;;9.80;;
8596;SDS011;4336;49.310;8.646;2023-06-22T00:03:07;10.57;;;9.60;;
8596;SDS011;4336;49.310;8.646;2023-06-22T00:05:33;10.30;;;9.40;;
8596;SDS011;4336;49.310;8.646;2023-06-22T00:08:02;11.37;;;10.27;;
8596;SDS011;4336;49.310;8.646;2023-06-22T00:10:29;10.80;;;9.87;;
8596;SDS011;4336;49.310;8.646;2023-06-22T00:12:54;10.77;;;9.87;;
8596;SDS011;4336;49.310;8.646;2023-06-22T00:15:20;11.20;;;10.10;;
8596;SDS011;4336;49.310;8.646;2023-06-22T00:17:46;11.00;;;10.00;;
8596;SDS011;4336;49.310;8.646;2023-06-22T00:20:11;11.87;;;8.40;;
8596;SDS011;4336;49.310;8.646;2023-06-22T00:22:39;10.80;;;9.80;;
8596;SDS011;4336;49.310;8.646;2023-06-22T00:25:06;10.73;;;9.83;;
8596;SDS011;4336;49.310;8.646;2023-06-22T00:27:32;10.80;;;9.70;;
8596;SDS011;4336;49.310;8.646;2023-06-22T00:29:58;10.63;;;9.53;;
8596;SDS011;4336;49.310;8.646;2023-06-22T00:32:24;11.40;;;8.63;;
8596;SDS011;4336;49.310;8.646;2023-06-22T00:34:49;10.60;;;9.60;;
8596;SDS011;4336;49.310;8.646;2023-06-22T00:37:15;10.03;;;9.13;;
8596;SDS011;4336;49.310;8.646;2023-06-22T00:39:42;11.10;;;9.87;;
8596;SDS011;4336;49.310;8.646;2023-06-22T00:42:08;10.37;;;9.30;;
8596;SDS011;4336;49.310;8.646;2023-06-22T00:44:34;9.80;;;8.90;;
8596;SDS011;4336;49.310;8.646;2023-06-22T00:47:01;8.60;;;7.90;;
8596;SDS011;4336;49.310;8.646;2023-06-22T00:49:27;10.70;;;9.70;;
8596;SDS011;4336;49.310;8.646;2023-06-22T00:51:53;10.98;;;9.90;;
8596;SDS011;4336;49.310;8.646;2023-06-22T00:54:20;10.17;;;9.27;;
8596;SDS011;4336;49.310;8.646;2023-06-22T00:56:53;11.93;;;10.63;;
8596;SDS011;4336;49.310;8.646;2023-06-22T00:59:21;20.50;;;10.20;;
8596;SDS011;4336;49.310;8.646;2023-06-22T01:01:47;15.87;;;10.77;;
8596;SDS011;4336;49.310;8.646;2023-06-22T01:04:13;16.20;;;11.73;;
8596;SDS011;4336;49.310;8.646;2023-06-22T01:06:41;12.97;;;11.33;;
8596;SDS011;4336;49.310;8.646;2023-06-22T01:09:25;14.07;;;12.37;;
8596;SDS011;4336;49.310;8.646;2023-06-22T01:12:01;14.37;;;12.73;;
8596;SDS011;4336;49.310;8.646;2023-06-22T01:14:54;13.70;;;12.30;;
8596;SDS011;4336;49.310;8.646;2023-06-22T01:17:20;13.27;;;11.97;;
8596;SDS011;4336;49.310;8.646;2023-06-22T01:19:50;13.30;;;11.93;;
8596;SDS011;4336;49.310;8.646;2023-06-22T01:22:22;14.43;;;13.00;;
8596;SDS011;4336;49.310;8.646;2023-06-22T01:30:13;15.67;;;14.20;;
8596;SDS011;4336;49.310;8.646;2023-06-22T01:32:39;15.73;;;13.27;;
8596;SDS011;4336;49.310;8.646;2023-06-22T01:35:06;15.50;;;13.57;;
8596;SDS011;4336;49.310;8.646;2023-06-22T01:37:33;14.00;;;12.30;;
8596;SDS011;4336;49.310;8.646;2023-06-22T01:40:01;16.77;;;14.53;;
8596;SDS011;4336;49.310;8.646;2023-06-22T01:42:29;14.87;;;13.37;;
8596;SDS011;4336;49.310;8.646;2023-06-22T01:44:55;17.53;;;15.03;;
8596;SDS011;4336;49.310;8.646;2023-06-22T01:47:22;16.30;;;14.07;;
8596;SDS011;4336;49.310;8.646;2023-06-22T01:49:49;16.87;;;15.17;;
8596;SDS011;4336;49.310;8.646;2023-06-22T01:52:24;15.80;;;13.77;;
8596;SDS011;4336;49.310;8.646;2023-06-22T01:55:00;17.63;;;14.70;;
8596;SDS011;4336;49.310;8.646;2023-06-22T01:57:26;15.10;;;13.40;;
8596;SDS011;4336;49.310;8.646;2023-06-22T01:59:56;18.67;;;16.67;;
8596;SDS011;4336;49.310;8.646;2023-06-22T02:02:23;17.30;;;15.50;;
8596;SDS011;4336;49.310;8.646;2023-06-22T02:04:56;18.57;;;16.63;;
8596;SDS011;4336;49.310;8.646;2023-06-22T02:07:26;18.43;;;16.60;;
8596;SDS011;4336;49.310;8.646;2023-06-22T02:09:54;17.50;;;15.50;;
8596;SDS011;4336;49.310;8.646;2023-06-22T02:12:21;22.53;;;16.57;;
8596;SDS011;4336;49.310;8.646;2023-06-22T02:14:49;17.13;;;15.43;;
8596;SDS011;4336;49.310;8.646;2023-06-22T02:17:18;20.00;;;15.10;;
8596;SDS011;4336;49.310;8.646;2023-06-22T02:19:44;18.13;;;15.70;;
8596;SDS011;4336;49.310;8.646;2023-06-22T02:22:10;16.83;;;15.03;;
8596;SDS011;4336;49.310;8.646;2023-06-22T02:24:37;24.87;;;16.30;;
8596;SDS011;4336;49.310;8.646;2023-06-22T02:27:03;20.03;;;15.93;;
8596;SDS011;4336;49.310;8.646;2023-06-22T02:29:32;18.57;;;16.80;;
8596;SDS011;4336;49.310;8.646;2023-06-22T02:31:58;20.40;;;16.13;;
8596;SDS011;4336;49.310;8.646;2023-06-22T02:34:23;16.63;;;14.93;;
8596;SDS011;4336;49.310;8.646;2023-06-22T02:36:50;17.33;;;15.70;;
8596;SDS011;4336;49.310;8.646;2023-06-22T02:39:34;17.73;;;15.23;;
8596;SDS011;4336;49.310;8.646;2023-06-22T02:42:00;20.53;;;15.80;;
8596;SDS011;4336;49.310;8.646;2023-06-22T02:44:26;17.73;;;15.83;;
8596;SDS011;4336;49.310;8.646;2023-06-22T02:46:51;18.40;;;16.53;;
8596;SDS011;4336;49.310;8.646;2023-06-22T02:49:19;20.00;;;17.90;;
8596;SDS011;4336;49.310;8.646;2023-06-22T02:51:46;18.77;;;16.10;;
8596;SDS011;4336;49.310;8.646;2023-06-22T02:54:14;17.57;;;15.90;;
8596;SDS011;4336;49.310;8.646;2023-06-22T02:56:40;17.97;;;16.27;;
8596;SDS011;4336;49.310;8.646;2023-06-22T02:59:09;22.73;;;16.43;;
8596;SDS011;4336;49.310;8.646;2023-06-22T03:01:37;17.10;;;15.60;;
8596;SDS011;4336;49.310;8.646;2023-06-22T03:04:10;17.53;;;15.73;;
8596;SDS011;4336;49.310;8.646;2023-06-22T03:06:36;17.03;;;15.53;;
8596;SDS011;4336;49.310;8.646;2023-06-22T03:09:03;16.37;;;14.73;;
8596;SDS011;4336;49.310;8.646;2023-06-22T03:11:31;17.07;;;13.70;;
8596;SDS011;4336;49.310;8.646;2023-06-22T03:13:58;18.07;;;15.00;;
8596;SDS011;4336;49.310;8.646;2023-06-22T03:16:25;20.80;;;16.10;;
8596;SDS011;4336;49.310;8.646;2023-06-22T03:18:52;18.73;;;16.73;;
8596;SDS011;4336;49.310;8.646;2023-06-22T03:21:26;18.43;;;16.07;;
8596;SDS011;4336;49.310;8.646;2023-06-22T03:23:53;15.27;;;13.70;;
8596;SDS011;4336;49.310;8.646;2023-06-22T03:26:19;14.43;;;13.00;;
8596;SDS011;4336;49.310;8.646;2023-06-22T03:28:45;18.20;;;13.90;;
8596;SDS011;4336;49.310;8.646;2023-06-22T03:31:11;15.50;;;14.03;;
8596;SDS011;4336;49.310;8.646;2023-06-22T03:33:39;15.10;;;13.67;;
8596;SDS011;4336;49.310;8.646;2023-06-22T03:36:05;15.43;;;13.87;;
8596;SDS011;4336;49.310;8.646;2023-06-22T03:38:30;16.70;;;14.90;;
8596;SDS011;4336;49.310;8.646;2023-06-22T03:40:57;15.97;;;14.27;;
8596;SDS011;4336;49.310;8.646;2023-06-22T03:43:23;16.53;;;14.80;;
8596;SDS011;4336;49.310;8.646;2023-06-22T03:45:49;14.70;;;13.20;;
8596;SDS011;4336;49.310;8.646;2023-06-22T03:48:15;14.37;;;12.60;;
8596;SDS011;4336;49.310;8.646;2023-06-22T03:50:40;17.17;;;13.80;;
8596;SDS011;4336;49.310;8.646;2023-06-22T03:53:06;16.87;;;15.07;;
8596;SDS011;4336;49.310;8.646;2023-06-22T03:55:33;16.30;;;14.60;;
8596;SDS011;4336;49.310;8.646;2023-06-22T03:57:59;16.07;;;14.37;;
8596;SDS011;4336;49.310;8.646;2023-06-22T04:00:30;17.43;;;15.73;;
8596;SDS011;4336;49.310;8.646;2023-06-22T04:02:57;18.97;;;14.90;;
8596;SDS011;4336;49.310;8.646;2023-06-22T04:05:22;17.30;;;14.80;;
8596;SDS011;4336;49.310;8.646;2023-06-22T04:07:49;16.70;;;15.17;;
8596;SDS011;4336;49.310;8.646;2023-06-22T04:10:15;15.87;;;14.27;;
8596;SDS011;4336;49.310;8.646;2023-06-22T04:12:41;14.93;;;13.47;;
8596;SDS011;4336;49.310;8.646;2023-06-22T04:15:06;21.70;;;19.43;;
8596;SDS011;4336;49.310;8.646;2023-06-22T04:17:32;16.17;;;14.50;;
8596;SDS011;4336;49.310;8.646;2023-06-22T04:19:58;15.47;;;13.90;;
8596;SDS011;4336;49.310;8.646;2023-06-22T04:22:24;15.67;;;14.03;;
8596;SDS011;4336;49.310;8.646;2023-06-22T04:24:50;16.03;;;12.97;;
8596;SDS011;4336;49.310;8.646;2023-06-22T04:27:16;15.63;;;13.80;;
8596;SDS011;4336;49.310;8.646;2023-06-22T04:29:43;15.13;;;13.50;;
8596;SDS011;4336;49.310;8.646;2023-06-22T04:32:14;15.30;;;13.43;;
8596;SDS011;4336;49.310;8.646;2023-06-22T04:34:41;15.10;;;13.30;;
8596;SDS011;4336;49.310;8.646;2023-06-22T04:37:07;13.30;;;12.10;;
8596;SDS011;4336;49.310;8.646;2023-06-22T04:39:33;13.90;;;12.60;;
8596;SDS011;4336;49.310;8.646;2023-06-22T04:41:58;12.33;;;11.33;;
8596;SDS011;4336;49.310;8.646;2023-06-22T04:44:27;12.07;;;10.70;;
8596;SDS011;4336;49.310;8.646;2023-06-22T04:46:54;12.50;;;11.40;;
8596;SDS011;4336;49.310;8.646;2023-06-22T04:49:33;19.83;;;17.87;;
8596;SDS011;4336;49.310;8.646;2023-06-22T04:52:11;12.13;;;11.13;;
8596;SDS011;4336;49.310;8.646;2023-06-22T04:54:38;12.20;;;11.10;;
8596;SDS011;4336;49.310;8.646;2023-06-22T04:57:06;11.77;;;10.70;;
8596;SDS011;4336;49.310;8.646;2023-06-22T04:59:36;12.17;;;9.83;;
8596;SDS011;4336;49.310;8.646;2023-06-22T05:02:04;12.20;;;10.90;;
8596;SDS011;4336;49.310;8.646;2023-06-22T05:04:31;11.67;;;10.47;;
8596;SDS011;4336;49.310;8.646;2023-06-22T05:06:57;12.17;;;10.93;;
8596;SDS011;4336;49.310;8.646;2023-06-22T05:09:23;12.07;;;11.00;;
8596;SDS011;4336;49.310;8.646;2023-06-22T05:11:50;11.17;;;10.07;;
8596;SDS011;4336;49.310;8.646;2023-06-22T05:14:16;12.13;;;10.93;;
8596;SDS011;4336;49.310;8.646;2023-06-22T05:16:43;12.47;;;11.10;;
8596;SDS011;4336;49.310;8.646;2023-06-22T05:19:10;12.03;;;10.93;;
8596;SDS011;4336;49.310;8.646;2023-06-22T05:21:36;12.07;;;10.97;;
8596;SDS011;4336;49.310;8.646;2023-06-22T05:24:02;11.87;;;10.77;;
8596;SDS011;4336;49.310;8.646;2023-06-22T05:26:28;11.57;;;10.67;;
8596;SDS011;4336;49.310;8.646;2023-06-22T05:28:55;22.13;;;10.10;;
8596;SDS011;4336;49.310;8.646;2023-06-22T05:31:21;12.40;;;11.10;;
8596;SDS011;4336;49.310;8.646;2023-06-22T05:33:48;12.63;;;10.87;;
8596;SDS011;4336;49.310;8.646;2023-06-22T05:36:14;12.57;;;11.33;;
8596;SDS011;4336;49.310;8.646;2023-06-22T05:38:40;11.93;;;10.70;;
8596;SDS011;4336;49.310;8.646;2023-06-22T05:41:07;11.80;;;10.70;;
8596;SDS011;4336;49.310;8.646;2023-06-22T05:43:32;11.07;;;9.97;;
8596;SDS011;4336;49.310;8.646;2023-06-22T05:45:59;11.38;;;10.43;;
8596;SDS011;4336;49.310;8.646;2023-06-22T05:48:26;10.77;;;9.88;;
8596;SDS011;4336;49.310;8.646;2023-06-22T05:50:52;11.65;;;10.55;;
8596;SDS011;4336;49.310;8.646;2023-06-22T05:53:18;11.60;;;10.50;;
8596;SDS011;4336;49.310;8.646;2023-06-22T05:55:44;11.63;;;10.50;;
8596;SDS011;4336;49.310;8.646;2023-06-22T05:58:10;12.23;;;10.02;;
8596;SDS011;4336;49.310;8.646;2023-06-22T06:00:36;11.18;;;10.05;;
8596;SDS011;4336;49.310;8.646;2023-06-22T06:03:01;12.02;;;10.93;;
8596;SDS011;4336;49.310;8.646;2023-06-22T06:05:31;12.27;;;11.05;;
8596;SDS011;4336;49.310;8.646;2023-06-22T06:07:58;13.82;;;9.73;;
8596;SDS011;4336;49.310;8.646;2023-06-22T06:10:25;13.02;;;9.75;;
8596;SDS011;4336;49.310;8.646;2023-06-22T06:12:51;12.00;;;10.23;;
8596;SDS011;4336;49.310;8.646;2023-06-22T06:15:17;16.55;;;11.43;;
8596;SDS011;4336;49.310;8.646;2023-06-22T06:17:47;11.98;;;10.85;;
8596;SDS011;4336;49.310;8.646;2023-06-22T06:20:13;10.90;;;9.93;;
8596;SDS011;4336;49.310;8.646;2023-06-22T06:22:39;11.77;;;10.57;;
8596;SDS011;4336;49.310;8.646;2023-06-22T06:25:05;12.75;;;10.70;;
8596;SDS011;4336;49.310;8.646;2023-06-22T06:27:31;11.35;;;9.80;;
8596;SDS011;4336;49.310;8.646;2023-06-22T06:29:56;12.18;;;10.27;;
8596;SDS011;4336;49.310;8.646;2023-06-22T06:32:22;11.55;;;10.35;;
8596;SDS011;4336;49.310;8.646;2023-06-22T06:34:49;11.38;;;10.27;;
8596;SDS011;4336;49.310;8.646;2023-06-22T06:37:14;11.35;;;9.65;;
8596;SDS011;4336;49.310;8.646;2023-06-22T06:39:40;11.88;;;10.52;;
8596;SDS011;4336;49.310;8.646;2023-06-22T06:42:06;11.43;;;10.20;;
8596;SDS011;4336;49.310;8.646;2023-06-22T06:44:32;11.68;;;10.48;;
8596;SDS011;4336;49.310;8.646;2023-06-22T06:46:58;10.15;;;9.25;;
8596;SDS011;4336;49.310;8.646;2023-06-22T06:49:24;9.20;;;8.23;;
8596;SDS011;4336;49.310;8.646;2023-06-22T06:51:50;10.48;;;9.43;;
8596;SDS011;4336;49.310;8.646;2023-06-22T06:54:15;11.00;;;9.65;;
8596;SDS011;4336;49.310;8.646;2023-06-22T06:56:41;13.77;;;10.80;;
8596;SDS011;4336;49.310;8.646;2023-06-22T06:59:13;12.57;;;11.27;;
8596;SDS011;4336;49.310;8.646;2023-06-22T07:01:40;12.75;;;11.55;;
8596;SDS011;4336;49.310;8.646;2023-06-22T07:04:07;11.52;;;9.80;;
8596;SDS011;4336;49.310;8.646;2023-06-22T07:06:32;11.63;;;10.48;;
8596;SDS011;4336;49.310;8.646;2023-06-22T07:08:59;13.55;;;11.25;;
8596;SDS011;4336;49.310;8.646;2023-06-22T07:11:25;12.57;;;11.35;;
8596;SDS011;4336;49.310;8.646;2023-06-22T07:13:50;13.30;;;11.32;;
8596;SDS011;4336;49.310;8.646;2023-06-22T07:16:16;12.55;;;10.52;;
8596;SDS011;4336;49.310;8.646;2023-06-22T07:18:43;10.65;;;9.75;;
8596;SDS011;4336;49.310;8.646;2023-06-22T07:21:09;11.93;;;10.70;;
8596;SDS011;4336;49.310;8.646;2023-06-22T07:23:35;11.82;;;10.30;;
8596;SDS011;4336;49.310;8.646;2023-06-22T07:26:00;11.20;;;10.15;;
8596;SDS011;4336;49.310;8.646;2023-06-22T07:28:27;11.30;;;10.15;;
8596;SDS011;4336;49.310;8.646;2023-06-22T07:30:54;11.60;;;10.45;;
8596;SDS011;4336;49.310;8.646;2023-06-22T07:33:20;11.68;;;10.68;;
8596;SDS011;4336;49.310;8.646;2023-06-22T07:35:46;11.95;;;10.85;;
8596;SDS011;4336;49.310;8.646;2023-06-22T07:38:12;13.30;;;10.82;;
8596;SDS011;4336;49.310;8.646;2023-06-22T07:40:39;11.73;;;10.48;;
8596;SDS011;4336;49.310;8.646;2023-06-22T07:43:07;11.10;;;9.95;;
8596;SDS011;4336;49.310;8.646;2023-06-22T07:45:32;10.95;;;9.95;;
8596;SDS011;4336;49.310;8.646;2023-06-22T07:48:00;10.85;;;9.77;;
8596;SDS011;4336;49.310;8.646;2023-06-22T07:50:26;12.57;;;10.43;;
8596;SDS011;4336;49.310;8.646;2023-06-22T07:52:52;11.50;;;10.52;;
8596;SDS011;4336;49.310;8.646;2023-06-22T07:55:18;10.82;;;8.73;;
8596;SDS011;4336;49.310;8.646;2023-06-22T07:57:44;11.38;;;9.82;;
8596;SDS011;4336;49.310;8.646;2023-06-22T08:00:11;10.88;;;9.82;;
8596;SDS011;4336;49.310;8.646;2023-06-22T08:02:44;11.38;;;10.13;;
8596;SDS011;4336;49.310;8.646;2023-06-22T08:05:11;14.02;;;9.57;;
8596;SDS011;4336;49.310;8.646;2023-06-22T08:07:37;9.35;;;8.43;;
8596;SDS011;4336;49.310;8.646;2023-06-22T08:10:04;11.40;;;9.32;;
8596;SDS011;4336;49.310;8.646;2023-06-22T08:12:30;10.38;;;9.38;;
8596;SDS011;4336;49.310;8.646;2023-06-22T08:14:57;11.35;;;9.93;;
8596;SDS011;4336;49.310;8.646;2023-06-22T08:17:23;10.48;;;9.43;;
8596;SDS011;4336;49.310;8.646;2023-06-22T08:19:49;11.88;;;9.32;;
8596;SDS011;4336;49.310;8.646;2023-06-22T08:22:16;11.15;;;10.05;;
8596;SDS011;4336;49.310;8.646;2023-06-22T08:24:42;13.02;;;9.50;;
8596;SDS011;4336;49.310;8.646;2023-06-22T08:27:09;13.65;;;8.98;;
8596;SDS011;4336;49.310;8.646;2023-06-22T08:29:37;10.40;;;9.25;;
8596;SDS011;4336;49.310;8.646;2023-06-22T08:32:03;10.15;;;9.20;;
8596;SDS011;4336;49.310;8.646;2023-06-22T08:34:29;16.15;;;10.20;;
8596;SDS011;4336;49.310;8.646;2023-06-22T08:36:55;12.00;;;10.32;;
8596;SDS011;4336;49.310;8.646;2023-06-22T08:39:21;14.25;;;9.80;;
8596;SDS011;4336;49.310;8.646;2023-06-22T08:41:47;12.50;;;10.32;;
8596;SDS011;4336;49.310;8.646;2023-06-22T08:44:13;15.90;;;10.75;;
8596;SDS011;4336;49.310;8.646;2023-06-22T08:46:39;9.68;;;8.77;;
8596;SDS011;4336;49.310;8.646;2023-06-22T08:49:06;13.30;;;11.13;;
8596;SDS011;4336;49.310;8.646;2023-06-22T08:51:32;10.27;;;9.10;;
8596;SDS011;4336;49.310;8.646;2023-06-22T08:53:57;13.45;;;9.60;;
8596;SDS011;4336;49.310;8.646;2023-06-22T08:56:23;11.50;;;10.27;;
8596;SDS011;4336;49.310;8.646;2023-06-22T08:58:49;11.73;;;10.52;;
8596;SDS011;4336;49.310;8.646;2023-06-22T09:01:15;9.93;;;8.93;;
8596;SDS011;4336;49.310;8.646;2023-06-22T09:03:41;12.27;;;10.60;;
8596;SDS011;4336;49.310;8.646;2023-06-22T09:06:07;9.82;;;8.77;;
8596;SDS011;4336;49.310;8.646;2023-06-22T09:08:34;19.77;;;9.25;;
8596;SDS011;4336;49.310;8.646;2023-06-22T09:11:01;11.23;;;10.00;;
8596;SDS011;4336;49.310;8.646;2023-06-22T09:13:27;15.30;;;9.23;;
8596;SDS011;4336;49.310;8.646;2023-06-22T09:15:55;10.13;;;8.50;;
8596;SDS011;4336;49.310;8.646;2023-06-22T09:18:21;14.80;;;8.82;;
8596;SDS011;4336;49.310;8.646;2023-06-22T09:20:46;9.50;;;8.63;;
8596;SDS011;4336;49.310;8.646;2023-06-22T09:23:12;10.45;;;8.82;;
8596;SDS011;4336;49.310;8.646;2023-06-22T09:25:38;10.45;;;9.07;;
8596;SDS011;4336;49.310;8.646;2023-06-22T09:28:05;11.38;;;9.75;;
8596;SDS011;4336;49.310;8.646;2023-06-22T09:30:31;13.00;;;9.57;;
8596;SDS011;4336;49.310;8.646;2023-06-22T09:32:56;13.00;;;9.77;;
8596;SDS011;4336;49.310;8.646;2023-06-22T09:35:22;13.02;;;9.13;;
8596;SDS011;4336;49.310;8.646;2023-06-22T09:37:48;10.38;;;9.35;;
8596;SDS011;4336;49.310;8.646;2023-06-22T09:40:14;13.68;;;8.98;;
8596;SDS011;4336;49.310;8.646;2023-06-22T09:42:41;12.15;;;9.80;;
8596;SDS011;4336;49.310;8.646;2023-06-22T09:45:08;14.45;;;10.68;;
8596;SDS011;4336;49.310;8.646;2023-06-22T09:47:34;11.07;;;9.52;;
8596;SDS011;4336;49.310;8.646;2023-06-22T09:49:59;11.80;;;9.20;;
8596;SDS011;4336;49.310;8.646;2023-06-22T09:52:25;13.50;;;9.00;;
8596;SDS011;4336;49.310;8.646;2023-06-22T09:54:51;10.30;;;9.27;;
8596;SDS011;4336;49.310;8.646;2023-06-22T09:57:16;12.38;;;7.85;;
8596;SDS011;4336;49.310;8.646;2023-06-22T09:59:42;12.48;;;9.45;;
8596;SDS011;4336;49.310;8.646;2023-06-22T10:02:08;11.75;;;9.50;;
8596;SDS011;4336;49.310;8.646;2023-06-22T10:04:34;12.18;;;9.40;;
8596;SDS011;4336;49.310;8.646;2023-06-22T10:07:00;13.80;;;9.00;;
8596;SDS011;4336;49.310;8.646;2023-06-22T10:09:26;15.75;;;9.32;;
8596;SDS011;4336;49.310;8.646;2023-06-22T10:11:52;11.40;;;9.45;;
8596;SDS011;4336;49.310;8.646;2023-06-22T10:14:18;14.13;;;9.38;;
8596;SDS011;4336;49.310;8.646;2023-06-22T10:16:44;10.57;;;9.52;;
8596;SDS011;4336;49.310;8.646;2023-06-22T10:19:09;15.88;;;9.38;;
8596;SDS011;4336;49.310;8.646;2023-06-22T10:21:35;10.35;;;8.70;;
8596;SDS011;4336;49.310;8.646;2023-06-22T10:24:01;11.18;;;9.70;;
8596;SDS011;4336;49.310;8.646;2023-06-22T10:26:34;14.43;;;9.65;;
8596;SDS011;4336;49.310;8.646;2023-06-22T10:29:01;11.98;;;10.23;;
8596;SDS011;4336;49.310;8.646;2023-06-22T10:31:28;9.02;;;7.75;;
8596;SDS011;4336;49.310;8.646;2023-06-22T10:33:54;12.90;;;8.15;;
8596;SDS011;4336;49.310;8.646;2023-06-22T10:36:23;13.25;;;9.75;;
8596;SDS011;4336;49.310;8.646;2023-06-22T10:38:49;11.45;;;8.63;;
8596;SDS011;4336;49.310;8.646;2023-06-22T10:41:15;9.52;;;8.27;;
8596;SDS011;4336;49.310;8.646;2023-06-22T10:43:41;20.58;;;9.85;;
8596;SDS011;4336;49.310;8.646;2023-06-22T10:46:09;14.27;;;9.75;;
8596;SDS011;4336;49.310;8.646;2023-06-22T10:48:35;11.07;;;9.90;;
8596;SDS011;4336;49.310;8.646;2023-06-22T10:51:00;14.10;;;9.23;;
8596;SDS011;4336;49.310;8.646;2023-06-22T10:53:26;17.52;;;9.95;;
8596;SDS011;4336;49.310;8.646;2023-06-22T10:55:52;12.32;;;8.70;;
8596;SDS011;4336;49.310;8.646;2023-06-22T10:58:19;15.35;;;9.90;;
8596;SDS011;4336;49.310;8.646;2023-06-22T11:00:45;16.00;;;10.27;;
8596;SDS011;4336;49.310;8.646;2023-06-22T11:03:11;15.25;;;9.60;;
8596;SDS011;4336;49.310;8.646;2023-06-22T11:05:37;11.77;;;9.05;;
8596;SDS011;4336;49.310;8.646;2023-06-22T11:08:03;11.18;;;9.27;;
8596;SDS011;4336;49.310;8.646;2023-06-22T11:10:29;13.52;;;9.25;;
8596;SDS011;4336;49.310;8.646;2023-06-22T11:12:55;11.38;;;8.25;;
8596;SDS011;4336;49.310;8.646;2023-06-22T11:15:23;16.23;;;9.90;;
8596;SDS011;4336;49.310;8.646;2023-06-22T11:17:49;14.50;;;8.88;;
8596;SDS011;4336;49.310;8.646;2023-06-22T11:20:15;13.07;;;9.85;;
8596;SDS011;4336;49.310;8.646;2023-06-22T11:22:41;12.90;;;9.30;;
8596;SDS011;4336;49.310;8.646;2023-06-22T11:25:07;13.10;;;10.05;;
8596;SDS011;4336;49.310;8.646;2023-06-22T11:27:34;18.50;;;9.77;;
8596;SDS011;4336;49.310;8.646;2023-06-22T11:30:00;16.58;;;9.55;;
8596;SDS011;4336;49.310;8.646;2023-06-22T11:32:25;13.82;;;9.27;;
8596;SDS011;4336;49.310;8.646;2023-06-22T11:34:51;11.60;;;9.68;;
8596;SDS011;4336;49.310;8.646;2023-06-22T11:37:17;18.90;;;10.63;;
8596;SDS011;4336;49.310;8.646;2023-06-22T11:39:43;16.27;;;8.48;;
8596;SDS011;4336;49.310;8.646;2023-06-22T11:42:09;9.93;;;8.32;;
8596;SDS011;4336;49.310;8.646;2023-06-22T11:44:35;13.60;;;8.50;;
8596;SDS011;4336;49.310;8.646;2023-06-22T11:47:01;22.98;;;9.75;;
8596;SDS011;4336;49.310;8.646;2023-06-22T11:49:32;16.92;;;9.80;;
8596;SDS011;4336;49.310;8.646;2023-06-22T11:51:58;10.90;;;7.95;;
8596;SDS011;4336;49.310;8.646;2023-06-22T11:54:24;12.98;;;8.90;;
8596;SDS011;4336;49.310;8.646;2023-06-22T11:56:49;13.70;;;9.38;;
8596;SDS011;4336;49.310;8.646;2023-06-22T11:59:15;15.00;;;9.75;;
8596;SDS011;4336;49.310;8.646;2023-06-22T12:01:41;12.35;;;9.63;;
8596;SDS011;4336;49.310;8.646;2023-06-22T12:04:07;14.55;;;10.00;;
8596;SDS011;4336;49.310;8.646;2023-06-22T12:06:35;14.80;;;10.18;;
8596;SDS011;4336;49.310;8.646;2023-06-22T12:09:03;17.95;;;9.57;;
8596;SDS011;4336;49.310;8.646;2023-06-22T12:11:30;11.60;;;9.48;;
8596;SDS011;4336;49.310;8.646;2023-06-22T12:13:56;11.45;;;9.38;;
8596;SDS011;4336;49.310;8.646;2023-06-22T12:16:26;14.63;;;10.10;;
8596;SDS011;4336;49.310;8.646;2023-06-22T12:18:55;14.88;;;10.50;;
8596;SDS011;4336;49.310;8.646;2023-06-22T12:21:21;10.90;;;9.90;;
8596;SDS011;4336;49.310;8.646;2023-06-22T12:23:50;16.27;;;9.40;;
8596;SDS011;4336;49.310;8.646;2023-06-22T12:26:17;10.52;;;9.43;;
8596;SDS011;4336;49.310;8.646;2023-06-22T12:28:43;12.35;;;9.52;;
8596;SDS011;4336;49.310;8.646;2023-06-22T12:31:08;24.13;;;10.15;;
8596;SDS011;4336;49.310;8.646;2023-06-22T12:33:34;26.00;;;10.18;;
8596;SDS011;4336;49.310;8.646;2023-06-22T12:36:00;10.65;;;9.60;;
8596;SDS011;4336;49.310;8.646;2023-06-22T12:38:30;13.85;;;9.35;;
8596;SDS011;4336;49.310;8.646;2023-06-22T12:40:56;17.75;;;10.07;;
8596;SDS011;4336;49.310;8.646;2023-06-22T12:43:21;15.40;;;10.48;;
8596;SDS011;4336;49.310;8.646;2023-06-22T12:45:47;10.88;;;9.50;;
8596;SDS011;4336;49.310;8.646;2023-06-22T12:48:13;17.83;;;9.10;;
8596;SDS011;4336;49.310;8.646;2023-06-22T12:50:39;11.18;;;8.52;;
8596;SDS011;4336;49.310;8.646;2023-06-22T12:53:04;13.73;;;9.40;;
8596;SDS011;4336;49.310;8.646;2023-06-22T12:55:31;13.93;;;10.18;;
8596;SDS011;4336;49.310;8.646;2023-06-22T12:57:57;14.85;;;9.55;;
8596;SDS011;4336;49.310;8.646;2023-06-22T13:00:23;10.38;;;9.10;;
8596;SDS011;4336;49.310;8.646;2023-06-22T13:02:49;12.20;;;9.15;;
8596;SDS011;4336;49.310;8.646;2023-06-22T13:05:14;14.23;;;9.80;;
8596;SDS011;4336;49.310;8.646;2023-06-22T13:07:40;13.70;;;10.02;;
8596;SDS011;4336;49.310;8.646;2023-06-22T13:10:08;18.88;;;9.88;;
8596;SDS011;4336;49.310;8.646;2023-06-22T13:12:34;16.08;;;9.57;;
8596;SDS011;4336;49.310;8.646;2023-06-22T13:14:59;15.30;;;9.88;;
8596;SDS011;4336;49.310;8.646;2023-06-22T13:17:25;12.75;;;9.73;;
8596;SDS011;4336;49.310;8.646;2023-06-22T13:19:51;11.15;;;9.65;;
8596;SDS011;4336;49.310;8.646;2023-06-22T13:22:27;12.25;;;9.95;;
8596;SDS011;4336;49.310;8.646;2023-06-22T13:24:57;15.90;;;8.50;;
8596;SDS011;4336;49.310;8.646;2023-06-22T13:27:23;14.32;;;9.60;;
8596;SDS011;4336;49.310;8.646;2023-06-22T13:29:49;17.38;;;10.90;;
8596;SDS011;4336;49.310;8.646;2023-06-22T13:32:15;14.63;;;10.55;;
8596;SDS011;4336;49.310;8.646;2023-06-22T13:34:41;19.50;;;10.23;;
8596;SDS011;4336;49.310;8.646;2023-06-22T13:37:07;13.25;;;9.82;;
8596;SDS011;4336;49.310;8.646;2023-06-22T13:39:33;18.10;;;10.45;;
8596;SDS011;4336;49.310;8.646;2023-06-22T13:41:59;18.55;;;10.18;;
8596;SDS011;4336;49.310;8.646;2023-06-22T13:44:25;18.23;;;9.40;;
8596;SDS011;4336;49.310;8.646;2023-06-22T13:46:54;23.33;;;10.05;;
8596;SDS011;4336;49.310;8.646;2023-06-22T13:49:20;14.18;;;10.18;;
8596;SDS011;4336;49.310;8.646;2023-06-22T13:51:47;15.25;;;10.27;;
8596;SDS011;4336;49.310;8.646;2023-06-22T13:54:16;16.33;;;9.88;;
8596;SDS011;4336;49.310;8.646;2023-06-22T13:56:42;15.95;;;10.00;;
8596;SDS011;4336;49.310;8.646;2023-06-22T13:59:07;16.17;;;10.80;;
8596;SDS011;4336;49.310;8.646;2023-06-22T14:01:37;13.57;;;9.75;;
8596;SDS011;4336;49.310;8.646;2023-06-22T14:04:07;15.52;;;11.02;;
8596;SDS011;4336;49.310;8.646;2023-06-22T14:06:32;13.00;;;9.65;;
8596;SDS011;4336;49.310;8.646;2023-06-22T14:08:58;16.15;;;10.48;;
8596;SDS011;4336;49.310;8.646;2023-06-22T14:11:24;15.90;;;9.90;;
8596;SDS011;4336;49.310;8.646;2023-06-22T14:13:50;13.45;;;10.25;;
8596;SDS011;4336;49.310;8.646;2023-06-22T14:16:16;14.45;;;10.13;;
8596;SDS011;4336;49.310;8.646;2023-06-22T14:18:42;14.70;;;9.35;;
8596;SDS011;4336;49.310;8.646;2023-06-22T14:21:08;17.35;;;9.20;;
8596;SDS011;4336;49.310;8.646;2023-06-22T14:23:33;16.17;;;9.10;;
8596;SDS011;4336;49.310;8.646;2023-06-22T14:25:59;13.52;;;10.00;;
8596;SDS011;4336;49.310;8.646;2023-06-22T14:28:25;17.70;;;9.90;;
8596;SDS011;4336;49.310;8.646;2023-06-22T14:30:51;16.05;;;10.60;;
8596;SDS011;4336;49.310;8.646;2023-06-22T14:33:16;14.48;;;10.00;;
8596;SDS011;4336;49.310;8.646;2023-06-22T14:35:42;13.77;;;10.32;;
8596;SDS011;4336;49.310;8.646;2023-06-22T14:38:08;16.05;;;10.65;;
8596;SDS011;4336;49.310;8.646;2023-06-22T14:40:34;11.38;;;9.32;;
8596;SDS011;4336;49.310;8.646;2023-06-22T14:42:59;15.18;;;10.35;;
8596;SDS011;4336;49.310;8.646;2023-06-22T14:45:25;14.25;;;9.98;;
8596;SDS011;4336;49.310;8.646;2023-06-22T14:47:51;17.08;;;12.93;;
8596;SDS011;4336;49.310;8.646;2023-06-22T14:50:17;18.48;;;11.73;;
8596;SDS011;4336;49.310;8.646;2023-06-22T14:52:43;15.93;;;10.57;;
8596;SDS011;4336;49.310;8.646;2023-06-22T14:55:09;12.40;;;10.35;;